Time;durP1;ratioP1;P1;durP2;ratioP2;P2;SDS_P1;SDS_P2;PMS_P1;PMS_P2;Temp;Humidity;BMP_temperature;BMP_pressure;BME280_temperature;BME280_humidity;BME280_pressure;Samples;Min_cycle;Max_cycle;Signal;HPM_P1;HPM_P2
2022/05/22 00:02:07;;;;;;;15.68;4.80;;;8.90;99.90;;;;;;6185868;23;20005;-84
2022/05/22 00:04:33;;;;;;;13.90;4.90;;;8.90;99.90;;;;;;6158374;23;20070;-83
2022/05/22 00:06:59;;;;;;;11.60;4.70;;;8.80;99.90;;;;;;6185563;23;20068;-84
2022/05/22 00:09:28;;;;;;;15.75;5.55;;;8.80;99.90;;;;;;6185979;23;20021;-84
2022/05/22 00:11:54;;;;;;;11.73;4.60;;;8.80;99.90;;;;;;6184051;23;20084;-83
2022/05/22 00:14:21;;;;;;;14.30;4.80;;;8.70;99.90;;;;;;6183943;23;20418;-84
2022/05/22 00:16:47;;;;;;;14.48;5.05;;;8.70;99.90;;;;;;6185305;23;20079;-84
2022/05/22 00:19:16;;;;;;;14.40;5.72;;;8.70;99.90;;;;;;6158263;23;20401;-83
2022/05/22 00:21:42;;;;;;;12.13;4.70;;;8.60;99.90;;;;;;6185263;23;20013;-83
2022/05/22 00:24:10;;;;;;;12.23;5.30;;;8.50;99.90;;;;;;6159220;23;20043;-84
2022/05/22 00:26:35;;;;;;;12.50;4.90;;;8.50;99.90;;;;;;6158267;23;20032;-84
2022/05/22 00:29:02;;;;;;;13.95;5.25;;;8.50;99.90;;;;;;6158726;23;20021;-84
2022/05/22 00:31:28;;;;;;;12.88;4.82;;;8.50;99.90;;;;;;6184579;23;20072;-84
2022/05/22 00:33:53;;;;;;;14.63;4.90;;;8.40;99.90;;;;;;6158503;23;20021;-83
2022/05/22 00:36:19;;;;;;;15.18;5.70;;;8.40;99.90;;;;;;6185499;23;20091;-83
2022/05/22 00:38:45;;;;;;;13.48;4.93;;;8.40;99.90;;;;;;6184480;23;20090;-84
2022/05/22 00:41:12;;;;;;;12.23;5.18;;;8.30;99.90;;;;;;6185496;23;20032;-83
2022/05/22 00:43:41;;;;;;;13.38;5.25;;;8.30;99.90;;;;;;6185580;23;20017;-83
2022/05/22 00:46:11;;;;;;;11.93;5.10;;;8.30;99.90;;;;;;6182679;23;20017;-83
2022/05/22 00:48:38;;;;;;;15.80;5.55;;;8.30;99.90;;;;;;6185426;23;20095;-83
2022/05/22 00:51:11;;;;;;;14.73;5.68;;;8.30;99.90;;;;;;6185499;23;20032;-84
2022/05/22 00:53:41;;;;;;;16.42;5.53;;;8.20;99.90;;;;;;6183721;23;20025;-84
2022/05/22 00:56:14;;;;;;;11.45;4.90;;;8.10;99.90;;;;;;6184820;23;20024;-84
2022/05/22 00:58:40;;;;;;;14.85;5.30;;;8.20;99.90;;;;;;6185184;23;20021;-83
2022/05/22 01:01:06;;;;;;;15.00;5.88;;;8.10;99.90;;;;;;6184378;23;20119;-83
2022/05/22 01:03:32;;;;;;;13.38;5.47;;;8.10;99.90;;;;;;6185398;23;20016;-84
2022/05/22 01:06:09;;;;;;;13.95;5.97;;;8.10;99.90;;;;;;6185061;23;20015;-83
2022/05/22 01:08:37;;;;;;;15.50;6.00;;;8.10;99.90;;;;;;6184593;23;20055;-83
2022/05/22 01:11:11;;;;;;;14.70;5.50;;;8.10;99.90;;;;;;6184606;23;20060;-83
2022/05/22 01:13:41;;;;;;;16.88;6.28;;;8.10;99.90;;;;;;6184177;23;20373;-83
2022/05/22 01:16:07;;;;;;;17.20;7.15;;;8.10;99.90;;;;;;6183267;23;20100;-83
2022/05/22 01:18:52;;;;;;;13.95;5.70;;;8.00;99.90;;;;;;6185161;23;20045;-83
2022/05/22 01:21:23;;;;;;;14.98;6.85;;;8.00;99.90;;;;;;6184102;23;20079;-83
2022/05/22 01:23:50;;;;;;;17.93;6.07;;;8.00;99.90;;;;;;6185002;23;20013;-83
2022/05/22 01:26:16;;;;;;;17.17;6.50;;;7.90;99.90;;;;;;6185082;23;20063;-84
2022/05/22 01:28:42;;;;;;;16.40;6.38;;;8.00;99.90;;;;;;6183677;23;20507;-83
2022/05/22 01:31:08;;;;;;;12.38;6.57;;;8.00;99.90;;;;;;6185133;23;20048;-83
2022/05/22 01:33:35;;;;;;;17.67;6.50;;;7.90;99.90;;;;;;6158563;23;20468;-83
2022/05/22 01:36:01;;;;;;;14.18;6.40;;;7.90;99.90;;;;;;6157651;23;20016;-84
2022/05/22 01:38:27;;;;;;;14.10;6.30;;;7.90;99.90;;;;;;6185306;23;20013;-83
2022/05/22 01:40:52;;;;;;;15.05;6.32;;;7.80;99.90;;;;;;6158121;23;20045;-83
2022/05/22 01:43:18;;;;;;;15.57;6.90;;;7.80;99.90;;;;;;6184429;23;20349;-84
2022/05/22 01:45:44;;;;;;;16.92;7.35;;;7.80;99.90;;;;;;6184325;23;20013;-84
2022/05/22 01:48:10;;;;;;;18.53;6.70;;;7.70;99.90;;;;;;6185518;23;20017;-84
2022/05/22 01:50:36;;;;;;;15.47;7.10;;;7.80;99.90;;;;;;6184777;23;20012;-83
2022/05/22 01:53:02;;;;;;;14.73;6.70;;;7.70;99.90;;;;;;6184773;23;20017;-83
2022/05/22 01:55:28;;;;;;;19.00;7.47;;;7.70;99.90;;;;;;6184938;23;20067;-83
2022/05/22 01:57:53;;;;;;;20.70;7.33;;;7.70;99.90;;;;;;6157175;23;20048;-83
2022/05/22 02:00:20;;;;;;;17.07;7.20;;;7.70;99.90;;;;;;6185232;23;20009;-83
2022/05/22 02:02:46;;;;;;;18.00;8.00;;;7.70;99.90;;;;;;6183742;23;20440;-84
2022/05/22 02:05:12;;;;;;;17.27;7.20;;;7.70;99.90;;;;;;6184382;23;20028;-84
2022/05/22 02:10:22;;;;;;;;;;;7.70;99.90;;;;;;6157675;23;20029;-83
2022/05/22 02:12:48;;;;;;;17.38;7.20;;;7.70;99.90;;;;;;6186275;23;20277;-84
2022/05/22 02:15:13;;;;;;;15.60;7.50;;;7.60;99.90;;;;;;6186771;23;20472;-83
2022/05/22 02:17:39;;;;;;;15.05;7.43;;;7.60;99.90;;;;;;6185512;23;20020;-83
2022/05/22 02:20:05;;;;;;;21.80;7.72;;;7.60;99.90;;;;;;6186801;23;20044;-84
2022/05/22 02:22:31;;;;;;;16.88;7.32;;;7.60;99.90;;;;;;6186386;23;20155;-83
2022/05/22 02:24:56;;;;;;;17.73;7.53;;;7.50;99.90;;;;;;6185630;23;20433;-83
2022/05/22 02:27:22;;;;;;;17.40;7.32;;;7.50;99.90;;;;;;6186772;23;20377;-84
2022/05/22 02:29:48;;;;;;;14.57;6.83;;;7.40;99.90;;;;;;6186294;23;20096;-84
2022/05/22 02:32:13;;;;;;;14.55;6.70;;;7.40;99.90;;;;;;6185205;23;20017;-84
2022/05/22 02:34:39;;;;;;;14.95;7.05;;;7.40;99.90;;;;;;6186449;23;20017;-83
2022/05/22 02:37:06;;;;;;;16.40;7.05;;;7.40;99.90;;;;;;6186628;23;20017;-83
2022/05/22 02:39:32;;;;;;;16.70;7.72;;;7.40;99.90;;;;;;6185926;23;20024;-83
2022/05/22 02:42:03;;;;;;;22.77;7.43;;;7.40;99.90;;;;;;6159681;23;20025;-84
2022/05/22 02:44:29;;;;;;;18.15;7.65;;;7.40;99.90;;;;;;6159984;23;20017;-84
2022/05/22 02:46:55;;;;;;;15.02;7.35;;;7.30;99.90;;;;;;6185087;23;20350;-83
2022/05/22 02:49:20;;;;;;;17.75;6.93;;;7.30;99.90;;;;;;6186595;23;20048;-84
2022/05/22 02:51:46;;;;;;;14.67;6.97;;;7.30;99.90;;;;;;6159193;23;20442;-84
2022/05/22 02:54:12;;;;;;;15.10;6.68;;;7.30;99.90;;;;;;6185159;23;20020;-83
2022/05/22 02:56:38;;;;;;;15.10;6.80;;;7.30;99.90;;;;;;6186586;23;20024;-84
2022/05/22 02:59:04;;;;;;;18.53;7.17;;;7.20;99.90;;;;;;6185825;23;20311;-84
2022/05/22 03:01:29;;;;;;;14.70;7.17;;;7.20;99.90;;;;;;6186003;23;20509;-83
2022/05/22 03:03:55;;;;;;;16.52;7.68;;;7.20;99.90;;;;;;6185786;23;20064;-83
2022/05/22 03:06:38;;;;;;;16.27;7.00;;;7.20;99.90;;;;;;6159120;23;20024;-84
2022/05/22 03:09:13;;;;;;;17.40;6.95;;;7.20;99.90;;;;;;6186364;23;20021;-83
2022/05/22 03:11:39;;;;;;;16.73;6.90;;;7.10;99.90;;;;;;6185661;23;20472;-84
2022/05/22 03:14:05;;;;;;;19.88;7.72;;;7.10;99.90;;;;;;6158817;23;20025;-84
2022/05/22 03:16:30;;;;;;;15.35;7.38;;;7.10;99.90;;;;;;6159672;23;20093;-84
2022/05/22 03:18:56;;;;;;;16.03;8.23;;;7.10;99.90;;;;;;6159371;23;20048;-84
2022/05/22 03:21:21;;;;;;;15.55;7.18;;;7.10;99.90;;;;;;6184998;23;20053;-84
2022/05/22 03:23:48;;;;;;;15.23;7.60;;;7.10;99.90;;;;;;6159182;23;20071;-84
2022/05/22 03:26:13;;;;;;;17.50;7.63;;;7.10;99.90;;;;;;6159778;23;20402;-84
2022/05/22 03:28:39;;;;;;;16.93;7.77;;;7.10;99.90;;;;;;6184961;23;20330;-83
2022/05/22 03:31:04;;;;;;;20.03;8.67;;;7.10;99.90;;;;;;6185968;23;20021;-84
2022/05/22 03:33:30;;;;;;;17.13;8.43;;;7.10;99.90;;;;;;6186263;23;20017;-84
2022/05/22 03:35:56;;;;;;;18.33;9.15;;;7.10;99.90;;;;;;6184872;23;20363;-84
2022/05/22 03:38:21;;;;;;;16.07;8.77;;;7.10;99.90;;;;;;6159696;23;20025;-84
2022/05/22 03:40:48;;;;;;;17.10;8.63;;;7.00;99.90;;;;;;6159408;23;20456;-83
2022/05/22 03:43:17;;;;;;;19.50;9.17;;;7.00;99.90;;;;;;6185412;23;20032;-84
2022/05/22 03:45:43;;;;;;;20.40;9.37;;;7.10;99.90;;;;;;6185720;23;20024;-84
2022/05/22 03:48:10;;;;;;;17.63;8.93;;;7.10;99.90;;;;;;6159448;23;20019;-84
2022/05/22 03:50:36;;;;;;;17.30;8.33;;;7.10;99.90;;;;;;6185612;23;20017;-84
2022/05/22 03:53:02;;;;;;;22.03;9.37;;;7.10;99.90;;;;;;6185833;23;20013;-83
2022/05/22 03:55:28;;;;;;;25.55;10.05;;;7.10;99.90;;;;;;6185181;23;20020;-84
2022/05/22 03:57:54;;;;;;;23.92;11.02;;;7.20;99.90;;;;;;6185575;23;20013;-83
2022/05/22 04:00:21;;;;;;;21.65;9.90;;;7.20;99.90;;;;;;6186373;23;20013;-83
2022/05/22 04:02:47;;;;;;;20.20;9.57;;;7.30;99.90;;;;;;6184281;23;20013;-84
2022/05/22 04:05:12;;;;;;;22.80;10.30;;;7.30;99.90;;;;;;6184732;23;20044;-83
2022/05/22 04:07:39;;;;;;;20.35;9.57;;;7.30;99.90;;;;;;6185129;23;20017;-84
2022/05/22 04:10:07;;;;;;;21.20;10.80;;;7.40;99.90;;;;;;6158075;23;20523;-84
2022/05/22 04:12:33;;;;;;;21.55;10.25;;;7.40;99.90;;;;;;6185321;23;20009;-84
2022/05/22 04:14:58;;;;;;;18.00;10.75;;;7.50;99.90;;;;;;6185393;23;20060;-84
2022/05/22 04:17:24;;;;;;;24.97;10.93;;;7.60;99.90;;;;;;6184973;23;20017;-84
2022/05/22 04:19:50;;;;;;;21.58;10.98;;;7.60;99.90;;;;;;6185348;23;20480;-84
2022/05/22 04:22:16;;;;;;;24.73;11.50;;;7.60;99.90;;;;;;6185760;23;20013;-84
2022/05/22 04:27:25;;;;;;;23.10;11.50;;;7.70;99.90;;;;;;6185325;23;20436;-84
2022/05/22 04:29:51;;;;;;;24.07;11.43;;;7.80;99.90;;;;;;6184867;23;20048;-83
2022/05/22 04:32:17;;;;;;;29.35;12.55;;;7.80;99.90;;;;;;6184606;23;20013;-84
2022/05/22 04:34:42;;;;;;;22.63;11.90;;;7.90;99.90;;;;;;6185102;23;20049;-84
2022/05/22 04:37:08;;;;;;;24.90;12.20;;;7.90;99.90;;;;;;6159393;23;20013;-83
2022/05/22 04:39:34;;;;;;;26.02;12.70;;;8.00;99.90;;;;;;6184816;23;20334;-84
2022/05/22 04:41:59;;;;;;;22.70;12.85;;;8.10;99.90;;;;;;6185263;23;20074;-84
2022/05/22 04:44:25;;;;;;;19.63;11.65;;;8.10;99.90;;;;;;6185245;23;20020;-83
2022/05/22 04:46:51;;;;;;;25.02;12.02;;;8.10;99.90;;;;;;6184197;23;20110;-83
2022/05/22 04:49:16;;;;;;;25.58;12.02;;;8.20;99.90;;;;;;6185809;23;20051;-84
2022/05/22 04:51:42;;;;;;;23.85;12.70;;;8.30;99.90;;;;;;6158146;23;20021;-84
2022/05/22 04:54:11;;;;;;;24.40;12.05;;;8.30;99.90;;;;;;6185821;23;20017;-84
2022/05/22 04:56:37;;;;;;;26.10;11.70;;;8.40;99.90;;;;;;6185370;23;20068;-83
2022/05/22 04:59:02;;;;;;;21.75;12.60;;;8.40;99.90;;;;;;6184586;23;20088;-83
2022/05/22 05:01:28;;;;;;;22.33;12.15;;;8.50;99.90;;;;;;6185272;23;20751;-83
2022/05/22 05:03:54;;;;;;;24.60;10.80;;;8.50;99.90;;;;;;6185594;23;20020;-83
2022/05/22 05:06:20;;;;;;;21.05;11.15;;;8.60;99.90;;;;;;6184980;23;20104;-84
2022/05/22 05:08:46;;;;;;;20.95;10.90;;;8.70;99.90;;;;;;6158799;23;20044;-83
2022/05/22 05:11:12;;;;;;;20.48;11.32;;;8.70;99.90;;;;;;6158556;23;20434;-84
2022/05/22 05:13:38;;;;;;;18.13;10.52;;;8.80;99.90;;;;;;6184823;23;20021;-83
2022/05/22 05:16:06;;;;;;;22.23;11.32;;;9.00;99.90;;;;;;6185439;23;20036;-83
2022/05/22 05:18:33;;;;;;;21.98;11.02;;;9.10;99.90;;;;;;6185721;23;20021;-83
2022/05/22 05:21:01;;;;;;;22.65;11.27;;;9.10;99.90;;;;;;6184393;23;20024;-83
2022/05/22 05:23:27;;;;;;;24.27;11.55;;;9.20;99.90;;;;;;6158835;23;20075;-83
2022/05/22 05:25:53;;;;;;;20.83;11.48;;;9.30;99.90;;;;;;6158461;23;20434;-84
2022/05/22 05:28:18;;;;;;;19.00;10.73;;;9.40;99.90;;;;;;6184475;23;20467;-84
2022/05/22 05:30:44;;;;;;;21.80;10.90;;;9.50;99.90;;;;;;6158290;23;20023;-83
2022/05/22 05:33:09;;;;;;;23.33;10.98;;;9.60;99.90;;;;;;6185203;23;20024;-83
2022/05/22 05:35:35;;;;;;;23.20;10.97;;;9.70;99.90;;;;;;6184486;23;20122;-83
2022/05/22 05:38:01;;;;;;;21.88;10.98;;;9.80;99.90;;;;;;6158304;23;20027;-83
2022/05/22 05:40:27;;;;;;;20.13;10.10;;;9.90;99.90;;;;;;6185110;23;20396;-83
2022/05/22 05:42:53;;;;;;;22.30;10.65;;;10.00;99.90;;;;;;6184350;23;20016;-84
2022/05/22 05:45:19;;;;;;;24.80;10.60;;;10.10;99.90;;;;;;6159014;23;20044;-83
2022/05/22 05:47:50;;;;;;;22.23;9.70;;;10.30;99.90;;;;;;6160132;23;20032;-84
2022/05/22 05:50:22;;;;;;;20.10;10.25;;;10.40;99.90;;;;;;6186890;23;20013;-84
2022/05/22 05:52:49;;;;;;;18.27;9.27;;;10.50;99.90;;;;;;6186693;23;20017;-90
2022/05/22 05:55:16;;;;;;;22.98;9.73;;;10.60;99.90;;;;;;6160461;23;20330;-91
2022/05/22 05:57:42;;;;;;;23.33;10.10;;;10.70;99.90;;;;;;6160921;23;20508;-91
2022/05/22 06:00:09;;;;;;;19.65;9.40;;;10.80;99.90;;;;;;6162210;23;20017;-91
2022/05/22 06:02:35;;;;;;;17.85;8.93;;;10.90;99.90;;;;;;6187451;23;20023;-89
2022/05/22 06:05:01;;;;;;;20.83;9.00;;;11.10;99.90;;;;;;6186944;23;20080;-89
2022/05/22 06:07:27;;;;;;;18.70;8.65;;;11.20;99.90;;;;;;6161034;23;20017;-89
2022/05/22 06:09:52;;;;;;;21.85;8.82;;;11.30;99.90;;;;;;6159779;23;20020;-88
2022/05/22 06:12:21;;;;;;;20.48;8.68;;;11.70;99.90;;;;;;6161515;23;20442;-90
2022/05/22 06:14:47;;;;;;;20.83;8.20;;;11.50;99.90;;;;;;6160384;23;20017;-92
2022/05/22 06:17:13;;;;;;;20.83;8.68;;;11.60;99.90;;;;;;6159571;23;20013;-92
2022/05/22 06:19:54;;;;;;;19.50;8.07;;;11.70;99.90;;;;;;6187146;23;20017;-91
2022/05/22 06:22:21;;;;;;;20.80;8.27;;;11.80;99.90;;;;;;6161089;23;20013;-91
2022/05/22 06:24:47;;;;;;;17.98;7.32;;;11.90;99.90;;;;;;6186770;23;20017;-91
2022/05/22 06:27:13;;;;;;;18.17;6.35;;;12.00;99.90;;;;;;6187591;23;20048;-90
2022/05/22 06:29:40;;;;;;;15.02;6.43;;;12.00;99.90;;;;;;6160961;23;20521;-88
2022/05/22 06:32:07;;;;;;;16.27;5.97;;;12.20;99.90;;;;;;6185715;23;20017;-91
2022/05/22 06:34:41;;;;;;;19.63;6.65;;;12.30;99.90;;;;;;6159249;23;20017;-91
2022/05/22 06:37:08;;;;;;;;;;;12.30;99.90;;;;;;6159525;23;20013;-90
2022/05/22 06:39:51;;;;;;;15.48;5.80;;;12.40;99.90;;;;;;6186608;23;19986;-90
2022/05/22 06:42:28;;;;;;;17.00;5.50;;;12.60;99.90;;;;;;6186674;23;20071;-91
2022/05/22 06:45:13;;;;;;;13.82;5.82;;;12.70;99.90;;;;;;6158981;23;20024;-91
2022/05/22 06:47:41;;;;;;;18.45;6.35;;;12.80;99.90;;;;;;6159962;23;20020;-90
2022/05/22 06:50:11;;;;;;;16.73;6.20;;;12.90;99.90;;;;;;6159403;23;20013;-91
2022/05/22 06:52:36;;;;;;;17.27;6.20;;;13.00;99.90;;;;;;6185516;23;20500;-90
2022/05/22 06:55:03;;;;;;;15.80;6.65;;;13.10;99.90;;;;;;6165948;23;20037;-91
2022/05/22 06:57:29;;;;;;;16.83;5.80;;;13.30;99.90;;;;;;6185456;23;20073;-91
2022/05/22 06:59:57;;;;;;;16.75;6.13;;;13.40;99.90;;;;;;6185303;23;20013;-91
2022/05/22 07:02:24;;;;;;;17.42;5.78;;;13.60;99.90;;;;;;6159983;23;20048;-91
2022/05/22 07:04:51;;;;;;;14.30;5.88;;;13.80;99.90;;;;;;6185939;23;20083;-89
2022/05/22 07:07:16;;;;;;;12.57;5.20;;;13.90;99.90;;;;;;6159488;23;20013;-90
2022/05/22 07:09:42;;;;;;;13.23;5.43;;;14.10;99.90;;;;;;6159880;23;20020;-91
2022/05/22 07:12:11;;;;;;;14.85;5.05;;;14.20;99.90;;;;;;6159099;23;20021;-91
2022/05/22 07:14:37;;;;;;;14.00;5.20;;;14.30;99.90;;;;;;6186345;23;20027;-90
2022/05/22 07:17:04;;;;;;;15.80;5.28;;;14.40;99.90;;;;;;6158936;23;20068;-91
2022/05/22 07:19:34;;;;;;;13.40;4.50;;;14.50;99.90;;;;;;6158876;23;20052;-91
2022/05/22 07:22:01;;;;;;;17.25;4.80;;;14.60;99.90;;;;;;6186256;23;20044;-89
2022/05/22 07:24:27;;;;;;;13.70;4.63;;;14.70;99.90;;;;;;6159465;23;20021;-89
2022/05/22 07:26:53;;;;;;;12.68;4.22;;;14.80;99.90;;;;;;6158277;23;20017;-89
2022/05/22 07:29:18;;;;;;;14.77;4.85;;;14.90;99.90;;;;;;6158502;23;20029;-89
2022/05/22 07:31:45;;;;;;;15.13;4.57;;;15.00;99.90;;;;;;6185590;23;20352;-89
2022/05/22 07:34:10;;;;;;;13.13;4.85;;;15.10;99.90;;;;;;6158523;23;20044;-90
2022/05/22 07:36:36;;;;;;;10.48;4.18;;;15.20;99.90;;;;;;6159967;23;20059;-89
2022/05/22 07:39:03;;;;;;;12.13;4.53;;;15.30;99.90;;;;;;6187804;23;20081;-90
2022/05/22 07:41:29;;;;;;;14.02;4.63;;;15.30;99.90;;;;;;6158377;23;20021;-89
2022/05/22 07:43:55;;;;;;;13.38;4.35;;;15.40;99.90;;;;;;6158748;23;20355;-90
2022/05/22 07:46:21;;;;;;;15.52;4.63;;;15.50;99.90;;;;;;6185620;23;20109;-90
2022/05/22 07:48:46;;;;;;;14.35;4.60;;;15.60;99.90;;;;;;6184571;23;20366;-90
2022/05/22 07:51:12;;;;;;;13.48;4.43;;;15.70;99.90;;;;;;6159128;23;20020;-90
2022/05/22 07:53:38;;;;;;;15.02;4.45;;;15.80;99.90;;;;;;6185477;23;20037;-90
2022/05/22 07:56:04;;;;;;;13.27;4.63;;;15.80;99.90;;;;;;6158593;23;20048;-90
2022/05/22 07:58:30;;;;;;;13.60;4.50;;;16.00;99.90;;;;;;6187528;23;20117;-91
2022/05/22 08:00:57;;;;;;;14.40;4.50;;;16.10;99.90;;;;;;6184727;23;20441;-88
2022/05/22 08:03:23;;;;;;;13.43;4.22;;;16.20;99.90;;;;;;6158144;23;20104;-95
2022/05/22 08:05:51;;;;;;;14.20;4.10;;;16.30;99.90;;;;;;6188252;23;20013;-96
2022/05/22 08:08:17;;;;;;;13.85;4.13;;;16.40;99.90;;;;;;6164119;23;20024;-96
2022/05/22 08:10:43;;;;;;;10.43;4.55;;;16.40;99.90;;;;;;6157532;23;20457;-89
2022/05/22 08:13:11;;;;;;;12.85;4.05;;;16.40;99.90;;;;;;6185594;23;20049;-89
2022/05/22 08:15:38;;;;;;;12.55;4.20;;;16.50;99.90;;;;;;6184779;23;20013;-88
2022/05/22 08:18:07;;;;;;;10.45;3.63;;;16.70;99.90;;;;;;6185459;23;20017;-88
2022/05/22 08:20:34;;;;;;;12.68;4.10;;;16.80;99.90;;;;;;6158696;23;20071;-89
2022/05/22 08:23:03;;;;;;;12.30;3.60;;;16.80;99.90;;;;;;6157664;23;20017;-89
2022/05/22 08:25:30;;;;;;;14.25;4.00;;;16.80;99.90;;;;;;6158595;23;20100;-89
2022/05/22 08:27:57;;;;;;;12.30;3.72;;;16.80;99.90;;;;;;6158313;23;20021;-88
2022/05/22 08:30:24;;;;;;;13.82;4.00;;;17.00;99.90;;;;;;6159771;23;20060;-96
2022/05/22 08:32:51;;;;;;;12.70;3.78;;;17.10;99.90;;;;;;6160212;23;20017;-95
2022/05/22 08:35:22;;;;;;;13.30;3.95;;;17.30;99.90;;;;;;6185882;23;20017;-94
2022/05/22 08:37:47;;;;;;;11.40;3.47;;;17.50;99.90;;;;;;6182984;23;20017;-93
2022/05/22 08:40:15;;;;;;;12.52;3.67;;;17.60;99.90;;;;;;6185402;23;20032;-92
2022/05/22 08:42:43;;;;;;;12.68;4.22;;;17.80;99.90;;;;;;6161586;23;20017;-94
2022/05/22 08:45:19;;;;;;;16.92;4.20;;;17.90;99.90;;;;;;6158039;23;20009;-95
2022/05/22 08:48:12;;;;;;;11.60;3.33;;;18.00;99.90;;;;;;6161113;23;20025;-94
2022/05/22 08:50:38;;;;;;;12.20;3.65;;;18.10;99.90;;;;;;6148539;23;20445;-94
2022/05/22 08:53:18;;;;;;;13.68;3.55;;;18.20;99.90;;;;;;6186044;23;20480;-95
2022/05/22 09:01:33;;;;;;;11.93;3.70;;;17.70;99.90;;;;;;6160530;23;20054;-89
2022/05/22 09:04:32;;;;;;;11.00;3.40;;;17.60;99.90;;;;;;6184614;23;20096;-89
2022/05/22 09:07:11;;;;;;;14.82;3.95;;;17.60;99.90;;;;;;6183741;23;20111;-89
2022/05/22 09:09:39;;;;;;;13.23;3.85;;;18.00;99.90;;;;;;6158595;23;20039;-88
2022/05/22 09:12:20;;;;;;;11.25;3.90;;;18.20;99.90;;;;;;6183680;23;20021;-91
2022/05/22 09:15:15;;;;;;;11.25;2.88;;;18.20;99.90;;;;;;6158166;23;20032;-91
2022/05/22 09:17:59;;;;;;;10.00;2.33;;;18.00;99.90;;;;;;6164871;23;20102;-93
2022/05/22 09:20:37;;;;;;;11.18;2.78;;;17.90;99.90;;;;;;6185374;23;20009;-91
2022/05/22 09:23:05;;;;;;;8.63;2.55;;;17.90;99.90;;;;;;6188144;23;20503;-88
2022/05/22 09:25:49;;;;;;;11.75;3.20;;;18.20;99.90;;;;;;6161627;23;20016;-88
2022/05/22 09:28:24;;;;;;;10.25;3.35;;;18.50;99.90;;;;;;6161091;23;20354;-90
2022/05/22 09:31:17;;;;;;;13.15;3.03;;;18.70;99.90;;;;;;6161735;23;20021;-90
2022/05/22 09:33:55;;;;;;;11.32;3.28;;;18.90;99.90;;;;;;6187050;23;20013;-88
2022/05/22 09:36:43;;;;;;;9.63;2.78;;;19.30;99.90;;;;;;6162115;23;20013;-88
2022/05/22 09:39:40;;;;;;;11.55;2.85;;;19.50;99.90;;;;;;6188245;23;20024;-90
2022/05/22 09:42:34;;;;;;;9.65;2.70;;;19.80;99.90;;;;;;6187221;23;20027;-86
2022/05/22 09:45:08;;;;;;;11.38;2.83;;;19.90;99.90;;;;;;6187793;23;20446;-88
2022/05/22 09:47:51;;;;;;;12.10;3.30;;;19.80;99.90;;;;;;6187425;23;20020;-88
2022/05/22 09:50:38;;;;;;;12.07;2.85;;;19.60;99.90;;;;;;6161815;23;20496;-87
2022/05/22 09:53:30;;;;;;;8.98;2.67;;;19.30;99.90;;;;;;6161636;23;20024;-89
2022/05/22 09:56:05;;;;;;;9.40;2.72;;;19.10;99.90;;;;;;6160325;23;20472;-89
2022/05/22 09:59:12;;;;;;;12.13;2.80;;;19.00;99.90;;;;;;6186543;23;20025;-88
2022/05/22 10:01:42;;;;;;;11.65;2.58;;;19.30;99.90;;;;;;6185662;23;20017;-89
2022/05/22 10:04:13;;;;;;;8.73;2.45;;;19.50;99.90;;;;;;6162486;23;20349;-89
2022/05/22 10:07:04;;;;;;;7.70;2.40;;;19.80;99.90;;;;;;6160871;23;20012;-90
2022/05/22 10:10:07;;;;;;;10.05;2.40;;;19.90;99.90;;;;;;6185960;23;20025;-89
2022/05/22 10:12:44;;;;;;;9.45;2.60;;;20.10;99.90;;;;;;6161184;23;20095;-88
2022/05/22 10:15:18;;;;;;;9.13;2.10;;;20.30;99.90;;;;;;6186758;23;20013;-88
2022/05/22 10:18:10;;;;;;;12.77;2.50;;;20.10;99.90;;;;;;6160495;23;20021;-89
2022/05/22 10:21:00;;;;;;;9.77;2.53;;;19.80;99.90;;;;;;6152653;23;20028;-87
2022/05/22 10:23:54;;;;;;;11.93;2.60;;;19.70;99.90;;;;;;6186077;23;20024;-88
2022/05/22 10:26:23;;;;;;;8.77;2.58;;;19.80;99.90;;;;;;6160321;23;20028;-87
2022/05/22 10:28:54;;;;;;;10.10;2.67;;;19.90;99.90;;;;;;6186508;23;20052;-88
2022/05/22 10:31:37;;;;;;;11.52;2.70;;;19.80;99.90;;;;;;6185784;23;20103;-87
2022/05/22 10:34:32;;;;;;;10.40;2.50;;;19.80;99.90;;;;;;6184667;23;20454;-88
2022/05/22 10:37:05;;;;;;;8.93;2.30;;;19.70;99.90;;;;;;6157881;23;20024;-87
2022/05/22 10:39:30;;;;;;;10.07;2.45;;;19.60;99.90;;;;;;6186206;23;20017;-87
2022/05/22 10:44:55;;;;;;;11.90;2.70;;;19.40;99.90;;;;;;6184026;23;20048;-87
2022/05/22 10:47:29;;;;;;;11.40;2.50;;;19.30;99.90;;;;;;6159409;23;20111;-86
2022/05/22 10:49:55;;;;;;;9.43;2.40;;;19.30;99.90;;;;;;6158495;23;20017;-86
2022/05/22 10:52:30;;;;;;;11.98;2.53;;;19.30;99.90;;;;;;6158292;23;20020;-86
2022/05/22 10:54:56;;;;;;;10.80;2.45;;;19.20;99.90;;;;;;6184932;23;20029;-87
2022/05/22 10:57:27;;;;;;;10.82;2.42;;;19.20;99.90;;;;;;6184814;23;20070;-86
2022/05/22 10:59:54;;;;;;;8.10;2.22;;;19.20;99.90;;;;;;6184921;23;20044;-87
2022/05/22 11:02:27;;;;;;;10.48;2.50;;;19.10;99.90;;;;;;6185726;23;20013;-86
2022/05/22 11:04:55;;;;;;;8.73;2.30;;;19.20;99.90;;;;;;6182782;23;20016;-88
2022/05/22 11:07:34;;;;;;;9.90;2.50;;;19.20;99.90;;;;;;6187556;23;20088;-88
2022/05/22 11:10:27;;;;;;;8.88;2.40;;;19.60;99.90;;;;;;6185156;23;20354;-86
2022/05/22 11:13:06;;;;;;;8.77;2.58;;;19.90;99.90;;;;;;6158135;23;20040;-89
2022/05/22 11:15:34;;;;;;;7.75;2.33;;;20.40;99.90;;;;;;6186219;23;20013;-87
2022/05/22 11:19:55;;;;;;;10.48;2.63;;;21.20;99.90;;;;;;5065228;27;20411;-86
2022/05/22 11:22:31;;;;;;;9.45;2.40;;;22.10;99.90;;;;;;5069461;28;20044;-86
2022/05/22 11:25:26;;;;;;;9.40;2.30;;;21.80;99.90;;;;;;5065979;28;20400;-87
2022/05/22 11:28:25;;;;;;;9.40;2.20;;;22.30;99.90;;;;;;5067392;28;20488;-86
2022/05/22 11:31:00;;;;;;;11.52;2.40;;;22.60;99.90;;;;;;5067901;28;20495;-85
2022/05/22 11:33:40;;;;;;;8.70;2.45;;;22.80;99.90;;;;;;5069085;28;20084;-87
2022/05/22 11:36:33;;;;;;;10.88;2.75;;;23.00;99.90;;;;;;5069780;28;20558;-87
2022/05/22 11:39:22;;;;;;;10.20;2.78;;;23.40;99.90;;;;;;5069165;28;20049;-84
2022/05/22 11:41:52;;;;;;;8.70;2.55;;;23.60;99.90;;;;;;5048043;28;20033;-83
2022/05/22 11:44:57;;;;;;;10.82;2.58;;;23.60;99.90;;;;;;5047064;28;20461;-83
2022/05/22 11:47:49;;;;;;;10.48;2.40;;;23.60;99.90;;;;;;5045917;28;20065;-82
2022/05/22 11:50:23;;;;;;;9.82;2.35;;;23.70;99.90;;;;;;5045674;28;20059;-83
2022/05/22 11:53:16;;;;;;;7.82;2.47;;;23.80;99.90;;;;;;5048707;28;20116;-83
2022/05/22 11:55:59;;;;;;;9.32;2.83;;;23.80;99.90;;;;;;5045327;28;20041;-83
2022/05/22 11:58:42;;;;;;;8.50;2.42;;;23.70;99.90;;;;;;5047928;28;20037;-82
2022/05/22 12:01:38;;;;;;;7.97;2.25;;;23.60;99.60;;;;;;5047621;28;20045;-83
2022/05/22 12:04:22;;;;;;;9.00;2.63;;;23.50;99.90;;;;;;5046343;28;20049;-83
2022/05/22 12:07:02;;;;;;;9.88;2.83;;;23.40;99.90;;;;;;5046581;28;20071;-82
2022/05/22 12:09:46;;;;;;;7.88;2.10;;;23.40;99.40;;;;;;5047100;28;20041;-83
2022/05/22 12:12:30;;;;;;;8.80;2.40;;;23.40;99.10;;;;;;5049124;28;20110;-83
2022/05/22 12:15:14;;;;;;;8.27;2.20;;;23.20;99.30;;;;;;5044432;28;20045;-82
2022/05/22 12:17:55;;;;;;;9.45;2.20;;;22.80;99.50;;;;;;5046686;28;20077;-82
2022/05/22 12:20:43;;;;;;;8.05;2.20;;;22.50;97.30;;;;;;5045686;28;20064;-82
2022/05/22 12:23:25;;;;;;;6.55;2.10;;;22.10;98.80;;;;;;5050729;28;20075;-82
2022/05/22 12:25:54;;;;;;;8.18;2.05;;;21.90;99.30;;;;;;5048291;28;20072;-83
2022/05/22 12:28:37;;;;;;;8.25;2.25;;;21.50;99.90;;;;;;5046985;28;20045;-83
2022/05/22 12:31:07;;;;;;;9.57;2.53;;;21.30;99.90;;;;;;5033230;28;20045;-82
2022/05/22 12:33:35;;;;;;;8.88;2.38;;;21.10;99.90;;;;;;5032544;28;20036;-82
2022/05/22 12:36:02;;;;;;;7.63;2.40;;;20.90;99.90;;;;;;5032585;28;20049;-81
2022/05/22 12:38:28;;;;;;;11.00;2.33;;;20.90;99.90;;;;;;5035009;28;20107;-82
2022/05/22 12:41:14;;;;;;;9.35;2.60;;;20.80;99.90;;;;;;5033490;28;20440;-82
2022/05/22 12:43:40;;;;;;;9.80;2.40;;;20.70;99.90;;;;;;5032201;28;20048;-82
2022/05/22 12:46:10;;;;;;;8.85;2.30;;;20.50;99.90;;;;;;5033955;28;20062;-82
2022/05/22 12:48:43;;;;;;;6.13;2.00;;;20.40;99.90;;;;;;5033868;28;20049;-82
2022/05/22 12:51:18;;;;;;;9.27;2.30;;;20.30;99.90;;;;;;5031306;28;20057;-82
2022/05/22 12:53:49;;;;;;;11.30;2.55;;;20.20;99.90;;;;;;5034113;28;20068;-85
2022/05/22 12:56:29;;;;;;;8.05;2.20;;;20.10;99.90;;;;;;5034063;28;20497;-86
2022/05/22 12:59:03;;;;;;;9.32;2.45;;;20.10;99.90;;;;;;5033037;28;20053;-86
2022/05/22 13:01:32;;;;;;;7.03;1.98;;;20.10;99.90;;;;;;5034775;28;20374;-86
2022/05/22 13:04:05;;;;;;;9.27;2.58;;;20.10;99.90;;;;;;5034091;28;20053;-86
2022/05/22 13:06:42;;;;;;;7.50;2.20;;;20.10;99.90;;;;;;5035671;28;20046;-86
2022/05/22 13:09:07;;;;;;;7.75;2.10;;;20.10;99.90;;;;;;5033646;28;20064;-86
2022/05/22 13:11:50;;;;;;;8.95;2.30;;;20.10;99.90;;;;;;5034148;28;20057;-87
2022/05/22 13:14:47;;;;;;;7.82;2.10;;;20.10;99.90;;;;;;5034997;28;20075;-86
2022/05/22 13:17:16;;;;;;;7.22;1.90;;;20.00;99.90;;;;;;5013728;28;20092;-86
2022/05/22 13:19:52;;;;;;;7.80;2.13;;;20.10;99.90;;;;;;5033318;28;20062;-86